Flight Track Log - Related Links

Times and Time Zones

All times are in EDT time to prevent confusion due to time zone crossing. See the N44979 flight status page for this flight to view local times or setup timezone preferences in your user account.


Time Position Orientation Groundspeed Altitude Reporting Facility
EDT Latitude Longitude Course Direction KTS MPH feet Rate Location/Type
Sun 03:41:15 PM 31.5775 -84.1778 346° North 76 87 6,000  Level Jacksonville Center
Sun 03:42:15 PM 31.5753 -84.1800 220° Southwest 63 72 6,000 -2,650 Level Jacksonville Center
Sun 03:43:15 PM 31.5417 -84.2017 209° Southwest 154 177 700 -2,200 Descending Jacksonville Center
Sun 03:44:00 PM 31.5659 -84.2035 346° North  Level FlightAware Approximate
Sun 03:44:15 PM 31.5667 -84.2044 355° North 32 37 1,600  Level Jacksonville Center
Sun 03:45:00 PM 31.5963 -84.2124 346° North  Level FlightAware Approximate
Sun 03:45:15 PM 31.5897 -84.2119 345° North 32 37 2,100  Level Jacksonville Center
Sun 03:46:00 PM 31.6266 -84.2215 346° North  Level FlightAware Approximate
Sun 03:46:15 PM 31.6147 -84.2197 345° North 76 87 2,900  Level Jacksonville Center
Sun 03:47:15 PM 31.6397 -84.2250 350° North 88 101 3,500 500 Climbing Jacksonville Center
Sun 03:48:15 PM 31.6647 -84.2303 350° North 93 107 3,900 600 Climbing Jacksonville Center
Sun 03:49:15 PM 31.6917 -84.2356 351° North 93 107 4,700 650 Climbing Jacksonville Center
Sun 03:50:15 PM 31.7147 -84.2431 345° North 88 101 5,200 433 Climbing Jacksonville Center
Sun 03:52:15 PM 31.7644 -84.2586 345° North 88 101 6,000 267 Climbing Jacksonville Center
Sun 03:53:15 PM 31.7958 -84.2639 352° North 93 107 6,000  Level Jacksonville Center
Sun 03:54:15 PM 31.8250 -84.2717 347° North 104 120 6,000  Level Jacksonville Center
Sun 03:55:15 PM 31.8542 -84.2794 347° North 104 120 6,000  Level Jacksonville Center
Sun 03:57:23 PM 31.9167 -84.3000 344° North 110 127 6,000  Level Atlanta TRACON
Sun 03:58:23 PM 31.9500 -84.3000 360° North 114 131 6,000  Level Atlanta TRACON
Sun 03:59:23 PM 31.9833 -84.3167 337° Northwest 109 125 6,000  Level Atlanta TRACON
Sun 04:00:23 PM 32.0167 -84.3167 360° North 116 133 6,000  Level Atlanta TRACON
Sun 04:01:23 PM 32.0500 -84.3167 360° North 112 129 6,000  Level Atlanta TRACON
Sun 04:02:29 PM 32.0833 -84.3333 337° Northwest 117 135 6,000  Level Atlanta TRACON
Sun 04:03:29 PM 32.1167 -84.3333 360° North 115 132 6,000  Level Atlanta TRACON
Sun 04:04:29 PM 32.1500 -84.3333 360° North 115 132 6,000  Level Atlanta TRACON
Sun 04:05:23 PM 32.1667 -84.3333 360° North 114 131 6,000  Level Atlanta TRACON
Sun 04:06:23 PM 32.2000 -84.3333 360° North 110 127 6,000  Level Atlanta TRACON
Sun 04:07:23 PM 32.2333 -84.3333 360° North 115 132 6,000  Level Atlanta TRACON
Sun 04:08:23 PM 32.2667 -84.3333 360° North 114 131 6,000  Level Atlanta TRACON
Sun 04:09:23 PM 32.3000 -84.3333 360° North 114 131 6,000  Level Atlanta TRACON
Sun 04:10:23 PM 32.3333 -84.3500 337° Northwest 110 127 6,000  Level Atlanta TRACON
Sun 04:11:23 PM 32.3500 -84.3500 360° North 116 133 6,000  Level Atlanta TRACON
Sun 04:12:23 PM 32.3833 -84.3500 360° North 118 136 6,000  Level Atlanta TRACON
Sun 04:13:23 PM 32.4167 -84.3500 360° North 113 130 6,000  Level Atlanta TRACON
Sun 04:14:23 PM 32.4500 -84.3500 360° North 112 129 6,000  Level Atlanta TRACON
Sun 04:15:23 PM 32.4833 -84.3500 360° North 115 132 6,000  Level Atlanta TRACON
Sun 04:16:23 PM 32.5167 -84.3500 360° North 109 125 6,000  Level Atlanta TRACON
Sun 04:17:23 PM 32.5500 -84.3500 360° North 112 129 6,000  Level Atlanta TRACON
Sun 04:18:23 PM 32.5833 -84.3667 337° Northwest 121 139 6,000  Level Atlanta TRACON
Sun 04:19:23 PM 32.6167 -84.3667 360° North 117 135 6,000  Level Atlanta TRACON
Sun 04:20:23 PM 32.6500 -84.3667 360° North 113 130 6,000 -50 Level Atlanta TRACON
Sun 04:21:23 PM 32.6667 -84.3667 360° North 113 130 5,900  Descending Atlanta TRACON
Sun 04:22:23 PM 32.7000 -84.3667 360° North 110 127 6,000 50 Climbing Atlanta TRACON
Sun 04:23:23 PM 32.7333 -84.3667 360° North 117 135 6,000 -50 Level Atlanta TRACON
Sun 04:24:23 PM 32.7667 -84.3667 360° North 115 132 5,900  Descending Atlanta TRACON
Sun 04:25:23 PM 32.8000 -84.3667 360° North 113 130 6,000 50 Climbing Atlanta TRACON
Sun 04:26:23 PM 32.8333 -84.3833 337° Northwest 114 131 6,000 -50 Level Atlanta TRACON
Sun 04:27:23 PM 32.8667 -84.3833 360° North 114 131 5,900  Descending Atlanta TRACON
Sun 04:28:23 PM 32.9000 -84.3833 360° North 108 124 6,000 50 Climbing Atlanta TRACON
Sun 04:29:23 PM 32.9167 -84.3833 360° North 112 129 6,000  Level Atlanta TRACON
Sun 04:30:23 PM 32.9500 -84.3833 360° North 115 132 6,000  Level Atlanta TRACON
Sun 04:31:23 PM 32.9833 -84.3833 360° North 110 127 6,000  Level Atlanta TRACON
Sun 04:32:23 PM 33.0167 -84.4000 337° Northwest 109 125 6,000  Level Atlanta TRACON
Sun 04:33:23 PM 33.0500 -84.4000 360° North 113 130 6,000 -250 Level Atlanta TRACON
Sun 04:34:23 PM 33.0833 -84.4000 360° North 115 132 5,500 -450 Descending Atlanta TRACON
Sun 04:35:23 PM 33.1167 -84.4000 360° North 109 125 5,100 -250 Descending Atlanta TRACON
Sun 04:36:23 PM 33.1333 -84.4000 360° North 111 128 5,000 -50 Descending Atlanta TRACON
Sun 04:37:23 PM 33.1667 -84.4000 360° North 110 127 5,000  Level Atlanta TRACON
Sun 04:38:23 PM 33.2000 -84.4000 360° North 114 131 5,000 -50 Level Atlanta TRACON
Sun 04:39:23 PM 33.2333 -84.4000 360° North 111 128 4,900  Descending Atlanta TRACON
Sun 04:40:23 PM 33.2667 -84.4167 337° Northwest 106 122 5,000 50 Climbing Atlanta TRACON
Sun 04:41:23 PM 33.3000 -84.4167 360° North 108 124 5,000  Level Atlanta TRACON
Sun 04:42:23 PM 33.3333 -84.4167 360° North 112 129 5,000  Level Atlanta TRACON
Sun 04:43:23 PM 33.3500 -84.4000 40° Northeast 113 130 5,000  Level Atlanta TRACON
Sun 04:44:23 PM 33.3833 -84.4000 360° North 110 127 5,000  Level Atlanta TRACON
Sun 04:45:23 PM 33.4167 -84.4000 360° North 112 129 5,000 -50 Level Atlanta TRACON
Sun 04:46:23 PM 33.4500 -84.4000 360° North 109 125 4,900  Descending Atlanta TRACON
Sun 04:47:23 PM 33.4833 -84.4000 360° North 108 124 5,000 50 Climbing Atlanta TRACON
Sun 04:48:23 PM 33.5167 -84.4000 360° North 111 128 5,000 -50 Level Atlanta TRACON
Sun 04:49:23 PM 33.5333 -84.3833 40° Northeast 114 131 4,900  Descending Atlanta TRACON
Sun 04:50:23 PM 33.5667 -84.3833 360° North 112 129 5,000 50 Climbing Atlanta TRACON
Sun 04:51:23 PM 33.6000 -84.3833 360° North 112 129 5,000  Level Atlanta TRACON
Sun 04:53:23 PM 33.6667 -84.3833 360° North 112 129 5,000  Level Atlanta TRACON
Sun 04:54:23 PM 33.7000 -84.3667 23° Northeast 115 132 5,000  Level Atlanta TRACON
Sun 04:55:23 PM 33.7333 -84.3667 360° North 111 128 5,000  Level Atlanta TRACON
Sun 04:56:23 PM 33.7667 -84.3667 360° North 119 137 5,000  Level Atlanta TRACON
Sun 04:57:23 PM 33.8000 -84.3667 360° North 121 139 5,000  Level Atlanta TRACON
Sun 04:58:23 PM 33.8167 -84.3667 360° North 112 129 5,000  Level Atlanta TRACON
Sun 04:59:23 PM 33.8500 -84.3500 23° Northeast 116 133 5,000 -250 Level Atlanta TRACON
Sun 05:00:23 PM 33.8833 -84.3500 360° North 111 128 4,500 -500 Descending Atlanta TRACON
Sun 05:01:23 PM 33.9167 -84.3500 360° North 105 121 4,000 -250 Descending Atlanta TRACON
Sun 05:02:23 PM 33.9500 -84.3500 360° North 106 122 4,000 -200 Level Atlanta TRACON
Sun 05:03:23 PM 33.9667 -84.3667 320° Northwest 110 127 3,600 -400 Descending Atlanta TRACON
Sun 05:04:23 PM 34.0000 -84.3667 360° North 104 120 3,200 -333 Descending Atlanta TRACON
Sun 05:05:29 PM 34.0167 -84.4000 301° West 99 114 2,900 -50 Descending Atlanta TRACON
Sun 05:06:23 PM 34.0167 -84.4333 270° West 103 119 3,100 105 Climbing Atlanta TRACON
Sun 05:07:23 PM 34.0167 -84.4667 270° West 96 110 3,100 -100 Level Atlanta TRACON
Sun 05:08:23 PM 34.0167 -84.4833 270° West 85 98 2,900 -450 Descending Atlanta TRACON
Sun 05:09:23 PM 34.0167 -84.5167 270° West 68 78 2,200 -500 Descending Atlanta TRACON
Sun 05:10:23 PM 34.0167 -84.5333 270° West 73 84 1,900 -250 Descending Atlanta TRACON
Sun 05:11:23 PM 34.0167 -84.5667 270° West 72 83 1,700 -200 Descending Atlanta TRACON

Login

Don't have an account? Register now (free) for customized features, flight alerts, and more!